createdAt,value
2023-03-01T00:00:09.276Z,19.15
2023-03-01T00:00:19.245Z,19.15
2023-03-01T00:00:29.252Z,19.15
2023-03-01T00:00:39.235Z,19.12
2023-03-01T00:00:49.259Z,19.12
2023-03-01T00:00:59.228Z,19.15
2023-03-01T00:01:09.246Z,19.15
2023-03-01T00:01:19.223Z,19.13
2023-03-01T00:01:39.219Z,19.15
2023-03-01T00:01:49.237Z,19.13
2023-03-01T00:01:59.290Z,19.17
2023-03-01T00:02:09.268Z,19.13
2023-03-01T00:02:19.334Z,19.13
2023-03-01T00:02:29.335Z,19.16
2023-03-01T00:02:39.246Z,19.12
2023-03-01T00:02:49.236Z,19.12
2023-03-01T00:02:59.212Z,19.16
2023-03-01T00:03:09.360Z,19.13
2023-03-01T00:03:19.253Z,19.15
2023-03-01T00:03:29.288Z,19.15
2023-03-01T00:03:39.229Z,19.13
2023-03-01T00:03:59.225Z,19.15
2023-03-01T00:04:09.223Z,19.15
2023-03-01T00:04:19.205Z,19.13
2023-03-01T00:04:29.235Z,19.15
2023-03-01T00:04:39.212Z,19.13
2023-03-01T00:04:49.223Z,19.16
2023-03-01T00:04:59.233Z,19.15
2023-03-01T00:05:09.229Z,19.12
2023-03-01T00:05:19.195Z,19.15
2023-03-01T00:05:29.258Z,19.13
2023-03-01T00:05:39.206Z,19.13
2023-03-01T00:05:49.207Z,19.16
2023-03-01T00:05:59.191Z,19.12
2023-03-01T00:06:09.207Z,19.17
2023-03-01T00:06:29.541Z,19.15
2023-03-01T00:06:39.219Z,19.13
2023-03-01T00:06:49.206Z,19.16
2023-03-01T00:06:59.216Z,19.17
2023-03-01T00:07:09.196Z,19.15
2023-03-01T00:07:19.197Z,19.15
2023-03-01T00:07:29.197Z,19.17
2023-03-01T00:07:39.210Z,19.15
2023-03-01T00:07:49.199Z,19.15
2023-03-01T00:07:59.210Z,19.16
2023-03-01T00:08:09.174Z,19.17
2023-03-01T00:08:19.191Z,19.17
2023-03-01T00:08:29.176Z,19.15
2023-03-01T00:08:39.206Z,19.16
2023-03-01T00:08:59.219Z,19.16
2023-03-01T00:09:09.166Z,19.16
2023-03-01T00:09:19.189Z,19.16
2023-03-01T00:09:29.166Z,19.15
2023-03-01T00:09:39.180Z,19.16
2023-03-01T00:09:49.162Z,19.16
2023-03-01T00:09:59.202Z,19.16
2023-03-01T00:10:09.161Z,19.16
2023-03-01T00:10:19.193Z,19.13
2023-03-01T00:10:29.165Z,19.16
2023-03-01T00:10:39.188Z,19.17
2023-03-01T00:10:49.187Z,19.15
2023-03-01T00:10:59.261Z,19.13
2023-03-01T00:11:09.221Z,19.16
2023-03-01T00:11:19.253Z,19.13
2023-03-01T00:11:39.190Z,19.15
2023-03-01T00:11:49.149Z,19.12
2023-03-01T00:11:59.197Z,19.15
2023-03-01T00:12:09.152Z,19.16
2023-03-01T00:12:19.161Z,19.17
2023-03-01T00:12:29.147Z,19.13
2023-03-01T00:12:39.175Z,19.16
2023-03-01T00:12:49.165Z,19.16
2023-03-01T00:12:59.173Z,19.17
2023-03-01T00:13:09.137Z,19.16
2023-03-01T00:13:19.170Z,19.15
2023-03-01T00:13:29.137Z,19.15
2023-03-01T00:13:39.188Z,19.16
2023-03-01T00:13:49.136Z,19.17
2023-03-01T00:14:09.147Z,19.13
2023-03-01T00:14:19.169Z,19.15
2023-03-01T00:14:29.134Z,19.16
2023-03-01T00:14:39.148Z,19.15
2023-03-01T00:14:49.126Z,19.15
2023-03-01T00:14:59.142Z,19.13
2023-03-01T00:15:09.124Z,19.13
2023-03-01T00:15:19.154Z,19.15
2023-03-01T00:15:29.141Z,19.15
2023-03-01T00:15:39.159Z,19.12
2023-03-01T00:15:49.120Z,19.13
2023-03-01T00:15:59.152Z,19.13
2023-03-01T00:16:09.126Z,19.13
2023-03-01T00:16:19.209Z,19.15
2023-03-01T00:16:29.584Z,19.12
2023-03-01T00:16:39.170Z,19.12
2023-03-01T00:16:49.145Z,19.12
2023-03-01T00:16:59.154Z,19.12
2023-03-01T00:17:09.210Z,19.10
2023-03-01T00:17:19.143Z,19.10
2023-03-01T00:17:29.119Z,19.13
2023-03-01T00:17:39.140Z,19.13
2023-03-01T00:17:49.123Z,19.13
2023-03-01T00:17:59.123Z,19.12
2023-03-01T00:18:09.108Z,19.09
2023-03-01T00:18:19.119Z,19.13
2023-03-01T00:18:29.108Z,19.15
2023-03-01T00:18:39.132Z,19.10
2023-03-01T00:18:49.106Z,19.12
2023-03-01T00:18:59.188Z,19.12
2023-03-01T00:19:09.110Z,19.16
2023-03-01T00:19:28.088Z,19.12
2023-03-01T00:19:39.112Z,19.15
2023-03-01T00:19:49.118Z,19.16
2023-03-01T00:19:59.128Z,19.13
2023-03-01T00:20:09.089Z,19.15
2023-03-01T00:20:19.124Z,19.12
2023-03-01T00:20:29.085Z,19.15
2023-03-01T00:20:39.104Z,19.15
2023-03-01T00:20:49.091Z,19.13
2023-03-01T00:20:59.118Z,19.15
2023-03-01T00:21:09.083Z,19.15
2023-03-01T00:21:19.099Z,19.15
2023-03-01T00:21:29.084Z,19.13
2023-03-01T00:21:39.146Z,19.16
2023-03-01T00:21:59.094Z,19.15
2023-03-01T00:22:09.078Z,19.13
2023-03-01T00:22:19.091Z,19.12
2023-03-01T00:22:29.114Z,19.15
2023-03-01T00:22:39.085Z,19.12
2023-03-01T00:22:49.074Z,19.15
2023-03-01T00:22:59.085Z,19.12
2023-03-01T00:23:09.069Z,19.13
2023-03-01T00:23:19.083Z,19.13
2023-03-01T00:23:29.105Z,19.15
2023-03-01T00:23:39.081Z,19.13
2023-03-01T00:23:49.065Z,19.10
2023-03-01T00:23:59.098Z,19.12
2023-03-01T00:24:19.089Z,19.12
2023-03-01T00:24:29.064Z,19.10
2023-03-01T00:24:39.104Z,19.12
2023-03-01T00:24:49.068Z,19.12
2023-03-01T00:24:59.088Z,19.12
2023-03-01T00:25:09.055Z,19.13
2023-03-01T00:25:19.070Z,19.12
2023-03-01T00:25:29.052Z,19.10
2023-03-01T00:25:39.082Z,19.10
2023-03-01T00:25:49.051Z,19.10
2023-03-01T00:25:59.079Z,19.12
2023-03-01T00:26:09.051Z,19.10
2023-03-01T00:26:19.080Z,19.12
2023-03-01T00:26:29.490Z,19.12
2023-03-01T00:26:49.043Z,19.12
2023-03-01T00:26:59.060Z,19.13
2023-03-01T00:27:09.040Z,19.13
2023-03-01T00:27:19.076Z,19.10
2023-03-01T00:27:29.039Z,19.13
2023-03-01T00:27:39.090Z,19.13
2023-03-01T00:28:10.054Z,19.12
2023-03-01T00:28:14.735Z,19.15
2023-03-01T00:28:24.717Z,19.15
2023-03-01T00:28:34.749Z,19.12
2023-03-01T00:28:44.724Z,19.12
2023-03-01T00:28:54.760Z,19.13
2023-03-01T00:29:04.711Z,19.12
2023-03-01T00:29:14.732Z,19.10
2023-03-01T00:29:24.717Z,19.09
2023-03-01T00:29:34.729Z,19.10
2023-03-01T00:29:44.724Z,19.10
2023-03-01T00:29:54.742Z,19.09
2023-03-01T00:30:04.706Z,19.09
2023-03-01T00:30:14.721Z,19.10
2023-03-01T00:30:24.708Z,19.10
2023-03-01T00:30:34.777Z,19.07
2023-03-01T00:30:44.796Z,19.09
2023-03-01T00:30:54.787Z,19.09
2023-03-01T00:31:04.761Z,19.12
2023-03-01T00:31:14.838Z,19.10
2023-03-01T00:31:24.760Z,19.10
2023-03-01T00:31:34.734Z,19.10
2023-03-01T00:31:44.699Z,19.12
2023-03-01T00:31:54.802Z,19.12
2023-03-01T00:32:04.722Z,19.10
2023-03-01T00:32:14.749Z,19.12
2023-03-01T00:32:24.812Z,19.13
2023-03-01T00:32:34.704Z,19.15
2023-03-01T00:32:44.720Z,19.15
2023-03-01T00:32:54.706Z,19.15
2023-03-01T00:33:04.697Z,19.13
2023-03-01T00:33:14.758Z,19.10
2023-03-01T00:33:24.690Z,19.09
2023-03-01T00:33:34.735Z,19.13
2023-03-01T00:33:44.688Z,19.10
2023-03-01T00:33:54.718Z,19.10
2023-03-01T00:34:14.721Z,19.12
2023-03-01T00:34:24.677Z,19.10
2023-03-01T00:34:34.709Z,19.10
2023-03-01T00:34:44.708Z,19.09
2023-03-01T00:34:54.686Z,19.10
2023-03-01T00:35:04.680Z,19.10
2023-03-01T00:35:14.703Z,19.12
2023-03-01T00:35:24.718Z,19.10
2023-03-01T00:35:34.793Z,19.09
2023-03-01T00:35:44.704Z,19.12
2023-03-01T00:35:54.734Z,19.09
2023-03-01T00:36:04.670Z,19.09
2023-03-01T00:36:14.723Z,19.09
2023-03-01T00:36:24.660Z,19.09
2023-03-01T00:36:34.999Z,19.07
2023-03-01T00:36:44.664Z,19.06
2023-03-01T00:36:54.691Z,19.12
2023-03-01T00:37:04.659Z,19.10
2023-03-01T00:37:14.689Z,19.09
2023-03-01T00:37:24.667Z,19.12
2023-03-01T00:37:34.693Z,19.12
2023-03-01T00:37:44.658Z,19.09
2023-03-01T00:37:54.683Z,19.10
2023-03-01T00:38:04.652Z,19.10
2023-03-01T00:38:14.688Z,19.09
2023-03-01T00:38:24.649Z,19.10
2023-03-01T00:38:34.680Z,19.12
2023-03-01T00:38:44.715Z,19.10
2023-03-01T00:38:54.701Z,19.12
2023-03-01T00:39:14.665Z,19.13
2023-03-01T00:39:24.639Z,19.12
2023-03-01T00:39:34.674Z,19.10
2023-03-01T00:39:44.642Z,19.13
2023-03-01T00:39:54.655Z,19.10
2023-03-01T00:40:04.639Z,19.13
2023-03-01T00:40:14.671Z,19.13
2023-03-01T00:40:24.635Z,19.13
2023-03-01T00:40:34.654Z,19.13
2023-03-01T00:40:44.633Z,19.12
2023-03-01T00:40:54.687Z,19.15
2023-03-01T00:41:04.632Z,19.13
2023-03-01T00:41:14.661Z,19.13
2023-03-01T00:41:24.640Z,19.10
2023-03-01T00:41:34.659Z,19.15
2023-03-01T00:41:44.624Z,19.15
2023-03-01T00:41:54.637Z,19.15
2023-03-01T00:42:04.624Z,19.16
2023-03-01T00:42:14.639Z,19.12
2023-03-01T00:42:24.623Z,19.12
2023-03-01T00:42:34.641Z,19.10
2023-03-01T00:42:44.618Z,19.12
2023-03-01T00:42:54.659Z,19.13
2023-03-01T00:43:04.622Z,19.10
2023-03-01T00:43:14.640Z,19.12
2023-03-01T00:43:24.619Z,19.12
2023-03-01T00:43:34.647Z,19.10
2023-03-01T00:43:44.611Z,19.12
2023-03-01T00:43:54.662Z,19.12
2023-03-01T00:44:04.650Z,19.10
2023-03-01T00:44:14.627Z,19.15
2023-03-01T00:44:24.624Z,19.10
2023-03-01T00:44:34.651Z,19.13
2023-03-01T00:44:44.607Z,19.12
2023-03-01T00:44:54.636Z,19.10
2023-03-01T00:45:04.605Z,19.12
2023-03-01T00:45:14.627Z,19.12
2023-03-01T00:45:24.603Z,19.10
2023-03-01T00:45:34.625Z,19.10
2023-03-01T00:45:44.604Z,19.09
2023-03-01T00:45:54.633Z,19.10
2023-03-01T00:46:04.645Z,19.07
2023-03-01T00:46:14.630Z,19.10
2023-03-01T00:46:24.633Z,19.07
2023-03-01T00:46:44.605Z,19.10
2023-03-01T00:46:54.650Z,19.09
2023-03-01T00:47:04.587Z,19.10
2023-03-01T00:47:14.625Z,19.07
2023-03-01T00:47:24.587Z,19.07
2023-03-01T00:47:34.621Z,19.12
2023-03-01T00:47:44.586Z,19.12
2023-03-01T00:47:54.622Z,19.09
2023-03-01T00:48:04.587Z,19.05
2023-03-01T00:48:14.613Z,19.06
2023-03-01T00:48:24.587Z,19.10
2023-03-01T00:48:34.614Z,19.06
2023-03-01T00:48:44.577Z,19.06
2023-03-01T00:48:54.597Z,19.07
2023-03-01T00:49:04.575Z,19.09
2023-03-01T00:49:14.606Z,19.09
2023-03-01T00:49:24.574Z,19.06
2023-03-01T00:49:34.571Z,19.07
2023-03-01T00:49:44.608Z,19.09
2023-03-01T00:49:54.574Z,19.05
2023-03-01T00:50:04.588Z,19.06
2023-03-01T00:50:14.568Z,19.07
2023-03-01T00:50:24.598Z,19.06
2023-03-01T00:50:34.588Z,19.06
2023-03-01T00:50:44.601Z,19.06
2023-03-01T00:50:54.562Z,19.07
2023-03-01T00:51:04.600Z,19.05
2023-03-01T00:51:14.570Z,19.05
2023-03-01T00:51:24.599Z,19.07
2023-03-01T00:51:44.578Z,19.01
2023-03-01T00:51:54.556Z,19.07
2023-03-01T00:52:04.602Z,19.06
2023-03-01T00:52:14.551Z,19.07
2023-03-01T00:52:24.586Z,19.02
2023-03-01T00:52:34.549Z,19.05
2023-03-01T00:52:44.565Z,19.06
2023-03-01T00:52:54.547Z,19.07
2023-03-01T00:53:04.572Z,19.05
2023-03-01T00:53:14.553Z,19.07
2023-03-01T00:53:24.578Z,19.06
2023-03-01T00:53:34.542Z,19.05
2023-03-01T00:53:44.574Z,19.06
2023-03-01T00:53:54.552Z,19.07
2023-03-01T00:54:04.591Z,19.05
2023-03-01T00:54:14.551Z,19.05
2023-03-01T00:54:24.574Z,19.06
2023-03-01T00:54:34.540Z,19.05
2023-03-01T00:54:44.550Z,19.06
2023-03-01T00:54:54.534Z,19.06
2023-03-01T00:55:04.564Z,19.06
2023-03-01T00:55:14.530Z,19.09
2023-03-01T00:55:24.549Z,19.06
2023-03-01T00:55:34.549Z,19.07
2023-03-01T00:55:44.561Z,19.07
2023-03-01T00:55:54.540Z,19.07
2023-03-01T00:56:04.582Z,19.06
2023-03-01T00:56:14.526Z,19.05
2023-03-01T00:56:24.555Z,19.13
2023-03-01T00:56:44.554Z,19.06
2023-03-01T00:56:54.539Z,19.06
2023-03-01T00:57:04.549Z,19.06
2023-03-01T00:57:14.566Z,19.07
2023-03-01T00:57:24.539Z,19.07
2023-03-01T00:57:34.524Z,19.07
2023-03-01T00:57:44.528Z,19.06
2023-03-01T00:57:54.520Z,19.09
2023-03-01T00:58:04.526Z,19.07
2023-03-01T00:58:14.517Z,19.09
2023-03-01T00:58:24.541Z,19.09
2023-03-01T00:58:34.525Z,19.06
2023-03-01T00:58:44.541Z,19.07
2023-03-01T00:58:54.506Z,19.06
2023-03-01T00:59:04.546Z,19.06
2023-03-01T00:59:14.505Z,19.06
2023-03-01T00:59:24.518Z,19.09
2023-03-01T00:59:34.500Z,19.09
2023-03-01T00:59:44.530Z,19.06
2023-03-01T00:59:54.503Z,19.06
2023-03-01T01:00:04.539Z,19.07
2023-03-01T01:00:14.497Z,19.05
2023-03-01T01:00:24.514Z,19.07
2023-03-01T01:00:34.495Z,19.05
2023-03-01T01:00:44.527Z,19.06
2023-03-01T01:00:54.488Z,19.07
2023-03-01T01:01:04.551Z,19.02
2023-03-01T01:01:14.518Z,19.05
2023-03-01T01:01:24.592Z,19.06
2023-03-01T01:01:44.649Z,19.05
2023-03-01T01:01:54.583Z,19.06
2023-03-01T01:02:04.519Z,19.07
2023-03-01T01:02:14.541Z,19.09
2023-03-01T01:02:24.559Z,19.10
2023-03-01T01:02:34.520Z,19.02
2023-03-01T01:02:44.575Z,19.06
2023-03-01T01:02:54.561Z,19.09
2023-03-01T01:03:04.505Z,19.05
2023-03-01T01:03:14.473Z,19.07
2023-03-01T01:03:24.511Z,19.06
2023-03-01T01:03:34.478Z,19.07
2023-03-01T01:03:44.503Z,19.06
2023-03-01T01:03:54.470Z,19.05
2023-03-01T01:04:14.479Z,19.06
2023-03-01T01:04:24.480Z,19.06
2023-03-01T01:04:34.464Z,19.07
2023-03-01T01:04:44.478Z,19.07
2023-03-01T01:04:54.461Z,19.02
2023-03-01T01:05:04.501Z,19.09
2023-03-01T01:05:29.401Z,19.05
2023-03-01T01:05:34.103Z,19.06
2023-03-01T01:05:44.066Z,19.06
2023-03-01T01:05:54.079Z,19.06
2023-03-01T01:06:04.063Z,19.06
2023-03-01T01:06:14.094Z,19.06
2023-03-01T01:06:24.061Z,19.06
2023-03-01T01:06:34.260Z,19.07
2023-03-01T01:06:44.064Z,19.05
2023-03-01T01:06:54.093Z,19.02
2023-03-01T01:07:04.055Z,19.07
2023-03-01T01:07:14.071Z,19.05
2023-03-01T01:07:24.055Z,19.06
2023-03-01T01:07:34.087Z,19.07
2023-03-01T01:07:44.056Z,19.09
2023-03-01T01:07:54.075Z,19.09
2023-03-01T01:08:04.059Z,19.09
2023-03-01T01:08:14.086Z,19.09
2023-03-01T01:08:24.045Z,19.09
2023-03-01T01:08:34.060Z,19.09
2023-03-01T01:08:44.041Z,19.07
2023-03-01T01:08:54.070Z,19.09
2023-03-01T01:09:04.047Z,19.06
2023-03-01T01:09:14.080Z,19.09
2023-03-01T01:09:24.042Z,19.06
2023-03-01T01:09:34.057Z,19.07
2023-03-01T01:09:44.036Z,19.06
2023-03-01T01:09:54.077Z,19.06
2023-03-01T01:10:04.052Z,19.06
2023-03-01T01:10:14.067Z,19.09
2023-03-01T01:10:24.038Z,19.07
2023-03-01T01:10:34.073Z,19.10
2023-03-01T01:10:44.038Z,19.07
2023-03-01T01:10:54.060Z,19.06
2023-03-01T01:11:04.025Z,19.06
2023-03-01T01:11:14.041Z,19.05
2023-03-01T01:11:24.031Z,19.05
2023-03-01T01:11:34.074Z,19.07
2023-03-01T01:11:44.025Z,19.07
2023-03-01T01:11:54.041Z,19.09
2023-03-01T01:12:04.024Z,19.06
2023-03-01T01:12:14.052Z,19.05
2023-03-01T01:12:24.022Z,19.05
2023-03-01T01:12:34.051Z,19.06
2023-03-01T01:12:44.019Z,19.02
2023-03-01T01:12:54.045Z,19.06
2023-03-01T01:13:04.014Z,19.02
2023-03-01T01:13:14.044Z,19.05
2023-03-01T01:13:24.012Z,19.06
2023-03-01T01:13:34.028Z,19.02
2023-03-01T01:13:44.012Z,19.05
2023-03-01T01:13:54.041Z,19.02
2023-03-01T01:14:04.035Z,19.05
2023-03-01T01:14:14.028Z,19.05
2023-03-01T01:14:24.003Z,19.05
2023-03-01T01:14:34.018Z,19.02
2023-03-01T01:14:43.999Z,19.05
2023-03-01T01:14:54.032Z,19.06
2023-03-01T01:15:04.003Z,19.05
2023-03-01T01:15:14.028Z,19.06
2023-03-01T01:15:24.000Z,19.06
2023-03-01T01:15:34.064Z,19.07
2023-03-01T01:15:44.007Z,19.09
2023-03-01T01:15:54.044Z,19.09
2023-03-01T01:16:04.020Z,19.09
2023-03-01T01:16:14.127Z,19.07
2023-03-01T01:16:23.997Z,19.09
2023-03-01T01:16:44.016Z,19.09
2023-03-01T01:16:54.006Z,19.09
2023-03-01T01:17:03.988Z,19.10
2023-03-01T01:17:14.021Z,19.09
2023-03-01T01:17:23.988Z,19.09
2023-03-01T01:17:34.041Z,19.10
2023-03-01T01:17:43.980Z,19.10
2023-03-01T01:17:54.010Z,19.10
2023-03-01T01:18:03.977Z,19.12
2023-03-01T01:18:14.008Z,19.10
2023-03-01T01:18:23.977Z,19.10
2023-03-01T01:18:34.017Z,19.09
2023-03-01T01:18:43.981Z,19.07
2023-03-01T01:18:53.999Z,19.07
2023-03-01T01:19:03.979Z,19.09
2023-03-01T01:19:14.001Z,19.12
2023-03-01T01:19:23.966Z,19.09
2023-03-01T01:19:33.998Z,19.09
2023-03-01T01:19:43.965Z,19.09
2023-03-01T01:19:53.997Z,19.09
2023-03-01T01:20:03.964Z,19.07
2023-03-01T01:20:13.979Z,19.07
2023-03-01T01:20:23.962Z,19.06
2023-03-01T01:20:33.986Z,19.06
2023-03-01T01:20:43.958Z,19.06
2023-03-01T01:20:53.996Z,19.09
2023-03-01T01:21:03.960Z,19.07
2023-03-01T01:21:14.016Z,19.05
2023-03-01T01:21:23.969Z,19.05
2023-03-01T01:21:43.985Z,19.05
2023-03-01T01:21:53.968Z,19.05
2023-03-01T01:22:03.948Z,19.07
2023-03-01T01:22:14.008Z,19.06
2023-03-01T01:22:23.947Z,19.09
2023-03-01T01:22:33.983Z,19.05
2023-03-01T01:22:43.942Z,19.06
2023-03-01T01:22:53.958Z,19.07
2023-03-01T01:23:03.941Z,19.07
2023-03-01T01:23:13.957Z,19.06
2023-03-01T01:23:23.949Z,19.07
2023-03-01T01:23:33.958Z,19.05
2023-03-01T01:23:43.939Z,19.09
2023-03-01T01:23:53.977Z,19.05
2023-03-01T01:24:03.934Z,19.07
2023-03-01T01:24:13.970Z,19.06
2023-03-01T01:24:23.933Z,19.05
2023-03-01T01:24:33.952Z,19.07
2023-03-01T01:24:43.931Z,19.07
2023-03-01T01:24:53.943Z,19.07
2023-03-01T01:25:03.941Z,19.05
2023-03-01T01:25:13.945Z,19.09
2023-03-01T01:25:23.923Z,19.06
2023-03-01T01:25:33.936Z,19.07
2023-03-01T01:25:43.922Z,19.06
2023-03-01T01:25:53.937Z,19.06
2023-03-01T01:26:03.921Z,19.06
2023-03-01T01:26:13.954Z,19.02
2023-03-01T01:26:23.922Z,19.05
2023-03-01T01:26:43.919Z,19.05
2023-03-01T01:26:53.957Z,19.02
2023-03-01T01:27:03.912Z,19.09
2023-03-01T01:27:13.929Z,19.05
2023-03-01T01:27:23.909Z,19.02
2023-03-01T01:27:33.927Z,19.02
2023-03-01T01:27:43.909Z,19.02
2023-03-01T01:27:53.921Z,19.05
2023-03-01T01:28:03.946Z,19.06
2023-03-01T01:28:13.922Z,19.02
2023-03-01T01:28:23.901Z,19.02
2023-03-01T01:28:33.919Z,19.01
2023-03-01T01:28:43.903Z,19.05
2023-03-01T01:28:53.916Z,19.05
2023-03-01T01:29:13.930Z,19.02
2023-03-01T01:29:23.896Z,19.05
2023-03-01T01:29:33.914Z,19.01
2023-03-01T01:29:43.896Z,19.05
2023-03-01T01:29:53.926Z,19.06
2023-03-01T01:30:03.891Z,19.06
2023-03-01T01:30:13.930Z,18.99
2023-03-01T01:30:23.886Z,19.05
2023-03-01T01:30:33.921Z,19.06
2023-03-01T01:30:43.890Z,19.07
2023-03-01T01:30:53.924Z,19.05
2023-03-01T01:31:03.916Z,19.02
2023-03-01T01:31:13.975Z,19.07
2023-03-01T01:31:23.935Z,19.02
2023-03-01T01:31:33.945Z,19.05
2023-03-01T01:31:43.902Z,19.05
2023-03-01T01:31:53.941Z,19.07
2023-03-01T01:32:03.902Z,19.06
2023-03-01T01:32:13.901Z,19.05
2023-03-01T01:32:26.059Z,19.06
2023-03-01T01:32:33.873Z,19.06
2023-03-01T01:32:43.909Z,19.07
2023-03-01T01:32:53.874Z,19.05
2023-03-01T01:33:03.885Z,19.05
2023-03-01T01:33:13.872Z,19.07
2023-03-01T01:33:23.884Z,19.07
2023-03-01T01:33:33.869Z,19.05
2023-03-01T01:33:43.918Z,19.09
2023-03-01T01:33:53.862Z,19.05
2023-03-01T01:34:13.866Z,19.02
2023-03-01T01:34:23.878Z,19.02
2023-03-01T01:34:33.869Z,19.05
2023-03-01T01:34:43.895Z,19.05
2023-03-01T01:34:53.857Z,19.06
2023-03-01T01:35:03.889Z,19.02
2023-03-01T01:35:13.867Z,19.05
2023-03-01T01:35:23.906Z,19.02
2023-03-01T01:35:33.872Z,19.05
2023-03-01T01:35:43.934Z,19.05
2023-03-01T01:35:53.876Z,19.02
2023-03-01T01:36:03.871Z,19.02
2023-03-01T01:36:13.864Z,19.01
2023-03-01T01:36:23.862Z,19.02
2023-03-01T01:36:33.847Z,19.05
2023-03-01T01:36:43.876Z,19.02
2023-03-01T01:36:53.864Z,19.02
2023-03-01T01:37:03.938Z,19.01
2023-03-01T01:37:13.846Z,18.99
2023-03-01T01:37:23.857Z,18.99
2023-03-01T01:37:33.840Z,19.02
2023-03-01T01:37:43.853Z,19.02
2023-03-01T01:37:53.834Z,19.01
2023-03-01T01:38:03.853Z,18.99
2023-03-01T01:38:13.833Z,19.02
2023-03-01T01:38:23.848Z,19.02
2023-03-01T01:38:33.832Z,19.01
2023-03-01T01:38:43.866Z,18.99
2023-03-01T01:38:53.830Z,19.01
2023-03-01T01:39:13.836Z,19.01
2023-03-01T01:39:23.841Z,19.01
2023-03-01T01:39:33.825Z,19.02
2023-03-01T01:39:43.854Z,19.02
2023-03-01T01:39:53.850Z,19.02
2023-03-01T01:40:03.855Z,19.05
2023-03-01T01:40:13.820Z,19.02
2023-03-01T01:40:23.845Z,19.05
2023-03-01T01:40:33.821Z,19.05
2023-03-01T01:40:43.831Z,19.02
2023-03-01T01:40:53.821Z,19.02
2023-03-01T01:41:03.827Z,19.05
2023-03-01T01:41:13.810Z,19.05
2023-03-01T01:41:23.848Z,19.06
2023-03-01T01:41:33.810Z,19.06
2023-03-01T01:41:43.875Z,19.07
2023-03-01T01:41:53.806Z,19.06
2023-03-01T01:42:03.841Z,19.06
2023-03-01T01:42:13.803Z,19.07
2023-03-01T01:42:23.834Z,19.05
2023-03-01T01:42:33.811Z,19.05
2023-03-01T01:42:43.835Z,19.07
2023-03-01T01:42:53.798Z,19.05
2023-03-01T01:43:03.814Z,19.02
2023-03-01T01:43:13.795Z,19.07
2023-03-01T01:43:23.812Z,19.07
2023-03-01T01:43:33.794Z,19.06
2023-03-01T01:43:43.811Z,19.05
2023-03-01T01:43:53.791Z,19.06
2023-03-01T01:44:03.830Z,19.05
2023-03-01T01:44:13.791Z,19.02
2023-03-01T01:44:33.788Z,19.07
2023-03-01T01:44:43.823Z,19.02
2023-03-01T01:44:53.784Z,19.06
2023-03-01T01:45:03.817Z,19.02
2023-03-01T01:45:13.782Z,19.05
2023-03-01T01:45:23.825Z,19.05
2023-03-01T01:45:33.788Z,19.05
2023-03-01T01:45:43.794Z,19.05
2023-03-01T01:45:53.777Z,19.05
2023-03-01T01:46:03.855Z,19.01
2023-03-01T01:46:13.794Z,19.02
2023-03-01T01:46:23.879Z,19.01
2023-03-01T01:46:34.411Z,19.06
2023-03-01T01:46:43.840Z,19.06
2023-03-01T01:46:53.787Z,19.01
2023-03-01T01:47:03.785Z,19.02
2023-03-01T01:47:13.783Z,19.02
2023-03-01T01:47:23.801Z,19.02
2023-03-01T01:47:33.777Z,18.99
2023-03-01T01:47:43.782Z,19.02
2023-03-01T01:47:53.761Z,19.01
2023-03-01T01:48:03.793Z,19.01
2023-03-01T01:48:13.771Z,19.01
2023-03-01T01:48:23.794Z,18.99
2023-03-01T01:48:33.787Z,18.97
2023-03-01T01:48:43.783Z,19.01
2023-03-01T01:48:53.757Z,18.99
2023-03-01T01:49:03.777Z,19.02
2023-03-01T01:49:13.765Z,18.97
2023-03-01T01:49:23.766Z,18.99
2023-03-01T01:49:33.753Z,18.99
2023-03-01T01:49:43.767Z,18.97
2023-03-01T01:49:53.753Z,18.97
2023-03-01T01:50:03.787Z,18.97
2023-03-01T01:50:13.751Z,18.99
2023-03-01T01:50:23.776Z,19.02
2023-03-01T01:50:33.746Z,18.99
2023-03-01T01:50:43.776Z,18.97
2023-03-01T01:50:53.741Z,18.97
2023-03-01T01:51:03.780Z,18.99
2023-03-01T01:51:13.750Z,19.02
2023-03-01T01:51:23.759Z,19.01
2023-03-01T01:51:33.738Z,18.99
2023-03-01T01:51:43.768Z,19.01
2023-03-01T01:51:53.739Z,18.99
2023-03-01T01:52:03.747Z,18.97
2023-03-01T01:52:13.741Z,18.99
2023-03-01T01:52:23.792Z,19.01
2023-03-01T01:52:43.768Z,18.97
2023-03-01T01:52:53.730Z,18.97
2023-03-01T01:53:03.758Z,18.97
2023-03-01T01:53:13.741Z,18.97
2023-03-01T01:53:23.758Z,18.99
2023-03-01T01:53:33.720Z,18.99
2023-03-01T01:53:43.756Z,18.96
2023-03-01T01:53:53.718Z,19.01
2023-03-01T01:54:03.732Z,18.99
2023-03-01T01:54:13.721Z,18.97
2023-03-01T01:54:23.752Z,18.99
2023-03-01T01:54:33.716Z,18.99
2023-03-01T01:54:43.746Z,18.99
2023-03-01T01:54:53.715Z,18.97
2023-03-01T01:55:13.715Z,18.97
2023-03-01T01:55:23.725Z,19.02
2023-03-01T01:55:33.714Z,18.99
2023-03-01T01:55:43.734Z,18.96
2023-03-01T01:55:53.704Z,18.96
2023-03-01T01:56:03.727Z,18.97
2023-03-01T01:56:13.706Z,19.05
2023-03-01T01:56:23.720Z,18.97
2023-03-01T01:56:33.707Z,18.99
2023-03-01T01:56:43.716Z,18.97
2023-03-01T01:56:53.698Z,18.99
2023-03-01T01:57:03.745Z,18.96
2023-03-01T01:57:13.695Z,18.97
2023-03-01T01:57:23.728Z,18.97
2023-03-01T01:57:33.721Z,18.99
2023-03-01T01:57:43.724Z,18.97
2023-03-01T01:57:53.694Z,18.99
2023-03-01T01:58:03.707Z,19.02
2023-03-01T01:58:13.689Z,18.97
2023-03-01T01:58:23.720Z,18.97
2023-03-01T01:58:33.685Z,18.99
2023-03-01T01:58:43.719Z,18.99
2023-03-01T01:58:53.700Z,18.96
2023-03-01T01:59:03.699Z,19.01
2023-03-01T01:59:13.683Z,18.96
2023-03-01T01:59:23.697Z,18.99
2023-03-01T01:59:33.679Z,18.99
2023-03-01T01:59:43.711Z,19.01
2023-03-01T01:59:53.707Z,19.01
2023-03-01T02:00:03.694Z,19.01
2023-03-01T02:00:22.699Z,18.99
2023-03-01T02:00:33.677Z,18.97
2023-03-01T02:00:43.694Z,19.05
2023-03-01T02:00:53.677Z,19.02
2023-03-01T02:01:03.710Z,19.01
2023-03-01T02:01:13.667Z,19.02
2023-03-01T02:01:23.700Z,18.99
2023-03-01T02:01:33.667Z,18.99
2023-03-01T02:01:43.681Z,19.02
2023-03-01T02:01:53.664Z,19.05
2023-03-01T02:02:03.680Z,18.99
2023-03-01T02:02:13.678Z,18.99
2023-03-01T02:02:23.859Z,19.02
2023-03-01T02:02:33.838Z,19.01
2023-03-01T02:02:53.869Z,18.99
2023-03-01T02:03:03.790Z,19.01
2023-03-01T02:03:13.805Z,19.01
2023-03-01T02:03:23.794Z,19.02
2023-03-01T02:03:33.769Z,19.05
2023-03-01T02:03:43.819Z,19.01
2023-03-01T02:03:53.651Z,18.97
2023-03-01T02:04:03.680Z,19.02
2023-03-01T02:04:13.644Z,18.97
2023-03-01T02:04:23.661Z,19.01
2023-03-01T02:04:33.643Z,18.99
2023-03-01T02:04:43.676Z,18.97
2023-03-01T02:04:53.641Z,18.97
2023-03-01T02:05:03.656Z,18.97
2023-03-01T02:05:13.644Z,19.05
2023-03-01T02:05:23.677Z,19.02
2023-03-01T02:05:33.634Z,19.01
2023-03-01T02:05:43.826Z,18.99
2023-03-01T02:05:55.701Z,19.01
2023-03-01T02:06:03.674Z,19.01
2023-03-01T02:06:13.632Z,19.01
2023-03-01T02:06:23.652Z,19.01
2023-03-01T02:06:33.831Z,19.01
2023-03-01T02:06:43.646Z,19.02
2023-03-01T02:06:53.633Z,19.02
2023-03-01T02:07:03.675Z,19.02
2023-03-01T02:07:13.626Z,19.02
2023-03-01T02:07:23.665Z,18.99
2023-03-01T02:07:33.623Z,19.05
2023-03-01T02:07:43.641Z,19.02
2023-03-01T02:07:53.619Z,19.02
2023-03-01T02:08:03.650Z,19.01
2023-03-01T02:08:13.625Z,18.99
2023-03-01T02:08:23.632Z,19.01
2023-03-01T02:08:33.613Z,18.97
2023-03-01T02:08:43.629Z,19.01
2023-03-01T02:08:53.622Z,19.02
2023-03-01T02:09:03.643Z,18.99
2023-03-01T02:09:13.617Z,18.97
2023-03-01T02:09:23.628Z,19.01
2023-03-01T02:09:33.609Z,18.97
2023-03-01T02:09:43.624Z,18.99
2023-03-01T02:09:53.639Z,18.97
2023-03-01T02:10:03.638Z,18.99
2023-03-01T02:10:13.611Z,18.96
2023-03-01T02:10:33.601Z,18.99
2023-03-01T02:10:43.632Z,18.99
2023-03-01T02:10:53.606Z,18.99
2023-03-01T02:11:03.633Z,18.96
2023-03-01T02:11:13.596Z,18.97
2023-03-01T02:11:23.613Z,18.96
2023-03-01T02:11:33.623Z,18.96
2023-03-01T02:11:43.627Z,18.99
2023-03-01T02:11:53.592Z,18.97
2023-03-01T02:12:03.627Z,18.99
2023-03-01T02:12:13.610Z,18.97
2023-03-01T02:12:23.605Z,19.02
2023-03-01T02:12:33.590Z,18.96
2023-03-01T02:12:43.602Z,18.99
2023-03-01T02:12:53.599Z,18.97
2023-03-01T02:13:03.613Z,18.97
2023-03-01T02:13:13.596Z,18.97
2023-03-01T02:13:23.596Z,18.96
2023-03-01T02:13:33.592Z,18.97
2023-03-01T02:13:43.597Z,18.99
2023-03-01T02:13:53.583Z,18.97
2023-03-01T02:14:03.591Z,18.96